createdAt,value
2018-12-12T00:02:09.161Z,11.23
2018-12-12T00:04:36.712Z,11.17
2018-12-12T00:07:04.640Z,10.70
2018-12-12T00:09:32.650Z,10.53
2018-12-12T00:12:00.167Z,12.43
2018-12-12T00:14:27.853Z,11.63
2018-12-12T00:16:55.696Z,11.63
2018-12-12T00:19:23.301Z,12.43
2018-12-12T00:21:51.635Z,12.53
2018-12-12T00:24:19.194Z,12.63
2018-12-12T00:26:46.730Z,11.40
2018-12-12T00:29:14.466Z,11.00
2018-12-12T00:31:42.085Z,11.93
2018-12-12T00:34:09.651Z,12.50
2018-12-12T00:36:37.498Z,12.40
2018-12-12T00:39:06.796Z,12.50
2018-12-12T00:41:34.375Z,11.67
2018-12-12T00:44:01.934Z,11.07
2018-12-12T00:46:29.914Z,11.23
2018-12-12T00:48:58.233Z,9.83
2018-12-12T00:51:25.786Z,10.87
2018-12-12T00:53:53.295Z,10.40
2018-12-12T00:56:20.855Z,10.70
2018-12-12T00:58:48.399Z,10.50
2018-12-12T01:01:15.983Z,9.43
2018-12-12T01:03:43.747Z,9.27
2018-12-12T01:06:11.326Z,9.47
2018-12-12T01:08:38.972Z,9.23
2018-12-12T01:11:12.075Z,10.47
2018-12-12T01:13:39.677Z,9.03
2018-12-12T01:16:07.329Z,8.83
2018-12-12T01:18:34.840Z,8.77
2018-12-12T01:21:02.451Z,8.53
2018-12-12T01:23:30.009Z,9.33
2018-12-12T01:25:57.632Z,8.90
2018-12-12T01:28:25.434Z,8.30
2018-12-12T01:30:52.994Z,9.07
2018-12-12T01:33:20.614Z,8.60
2018-12-12T01:35:48.197Z,8.50
2018-12-12T01:38:15.941Z,8.80
2018-12-12T01:40:43.479Z,8.03
2018-12-12T01:43:11.071Z,8.00
2018-12-12T01:45:38.637Z,8.67
2018-12-12T01:48:06.187Z,8.70
2018-12-12T01:50:33.726Z,8.47
2018-12-12T01:53:01.297Z,7.30
2018-12-12T01:55:28.805Z,8.17
2018-12-12T01:57:57.135Z,7.80
2018-12-12T02:00:24.708Z,6.83
2018-12-12T02:02:52.677Z,8.10
2018-12-12T02:05:20.328Z,7.63
2018-12-12T02:07:48.302Z,7.53
2018-12-12T02:10:16.478Z,7.60
2018-12-12T02:12:48.037Z,7.47
2018-12-12T02:15:15.573Z,8.63
2018-12-12T02:17:43.289Z,7.53
2018-12-12T02:20:10.880Z,7.63
2018-12-12T02:22:38.704Z,7.93
2018-12-12T02:25:06.449Z,7.47
2018-12-12T02:27:34.013Z,7.40
2018-12-12T02:30:01.541Z,7.90
2018-12-12T02:32:29.134Z,7.47
2018-12-12T02:34:56.721Z,8.17
2018-12-12T02:37:24.257Z,7.33
2018-12-12T02:39:51.981Z,8.10
2018-12-12T02:42:19.529Z,8.50
2018-12-12T02:44:47.096Z,7.37
2018-12-12T02:47:14.799Z,7.30
2018-12-12T02:49:42.381Z,7.60
2018-12-12T02:52:09.918Z,8.23
2018-12-12T02:54:37.455Z,7.73
2018-12-12T02:57:05.959Z,7.40
2018-12-12T02:59:33.520Z,7.87
2018-12-12T03:02:01.046Z,7.43
2018-12-12T03:04:28.589Z,7.13
2018-12-12T03:06:57.671Z,7.03
2018-12-12T03:09:25.202Z,8.87
2018-12-12T03:11:52.781Z,7.70
2018-12-12T03:14:20.341Z,7.80
2018-12-12T03:16:47.974Z,7.47
2018-12-12T03:19:15.740Z,7.73
2018-12-12T03:21:43.293Z,6.70
2018-12-12T03:24:10.827Z,7.20
2018-12-12T03:26:38.341Z,7.83
2018-12-12T03:29:05.986Z,6.97
2018-12-12T03:31:33.645Z,7.53
2018-12-12T03:34:01.205Z,7.40
2018-12-12T03:36:28.733Z,7.27
2018-12-12T03:38:56.343Z,7.50
2018-12-12T03:41:24.013Z,7.07
2018-12-12T03:43:51.573Z,7.53
2018-12-12T03:46:19.159Z,6.50
2018-12-12T03:48:46.794Z,6.97
2018-12-12T03:51:14.434Z,7.57
2018-12-12T03:53:41.962Z,7.40
2018-12-12T03:56:09.526Z,7.43
2018-12-12T03:58:37.068Z,6.83
2018-12-12T04:01:04.642Z,8.33
2018-12-12T04:03:32.194Z,7.10
2018-12-12T04:05:59.788Z,7.00
2018-12-12T04:08:27.348Z,7.30
2018-12-12T04:10:54.917Z,7.23
2018-12-12T04:13:22.588Z,7.53
2018-12-12T04:15:50.169Z,7.20
2018-12-12T04:18:18.552Z,6.80
2018-12-12T04:20:46.113Z,6.47
2018-12-12T04:23:13.666Z,7.53
2018-12-12T04:25:41.308Z,6.80
2018-12-12T04:28:08.857Z,6.53
2018-12-12T04:30:36.522Z,7.93
2018-12-12T04:33:04.057Z,7.07
2018-12-12T04:35:31.658Z,6.90
2018-12-12T04:37:59.273Z,6.10
2018-12-12T04:40:27.169Z,6.43
2018-12-12T04:42:54.754Z,6.93
2018-12-12T04:45:22.350Z,7.40
2018-12-12T04:47:51.013Z,7.10
2018-12-12T04:50:18.974Z,7.27
2018-12-12T04:52:46.917Z,7.37
2018-12-12T04:55:14.508Z,7.10
2018-12-12T04:57:42.080Z,6.70
2018-12-12T05:00:10.440Z,6.93
2018-12-12T05:02:37.997Z,6.07
2018-12-12T05:05:06.476Z,6.83
2018-12-12T05:07:34.020Z,6.53
2018-12-12T05:10:01.870Z,6.50
2018-12-12T05:12:29.429Z,6.17
2018-12-12T05:14:56.979Z,7.07
2018-12-12T05:17:24.529Z,5.90
2018-12-12T05:19:52.279Z,7.07
2018-12-12T05:22:19.870Z,8.00
2018-12-12T05:24:47.397Z,6.30
2018-12-12T05:27:14.961Z,6.17
2018-12-12T05:29:42.729Z,6.10
2018-12-12T05:32:10.319Z,7.00
2018-12-12T05:34:37.874Z,7.63
2018-12-12T05:37:05.401Z,7.57
2018-12-12T05:39:32.963Z,6.27
2018-12-12T05:42:00.545Z,7.10
2018-12-12T05:44:28.149Z,9.80
2018-12-12T05:46:55.911Z,8.27
2018-12-12T05:49:23.670Z,8.70
2018-12-12T05:51:51.198Z,8.57
2018-12-12T05:54:18.771Z,9.67
2018-12-12T05:56:52.199Z,9.00
2018-12-12T05:59:15.901Z,8.90
2018-12-12T06:01:43.425Z,9.07
2018-12-12T06:04:10.978Z,7.63
2018-12-12T06:06:38.574Z,7.97
2018-12-12T06:09:06.823Z,8.83
2018-12-12T06:11:34.384Z,8.73
2018-12-12T06:14:01.911Z,9.07
2018-12-12T06:16:29.434Z,8.30
2018-12-12T06:18:57.100Z,9.63
2018-12-12T06:21:24.714Z,8.50
2018-12-12T06:23:52.357Z,9.20
2018-12-12T06:26:20.079Z,9.63
2018-12-12T06:28:47.787Z,9.53
2018-12-12T06:31:15.375Z,9.40
2018-12-12T06:33:43.003Z,10.37
2018-12-12T06:36:10.529Z,10.03
2018-12-12T06:38:38.369Z,10.27
2018-12-12T06:41:06.604Z,9.97
2018-12-12T06:43:34.216Z,10.40
2018-12-12T06:46:01.958Z,10.57
2018-12-12T06:48:29.660Z,11.90
2018-12-12T06:50:57.254Z,11.60
2018-12-12T06:53:24.861Z,11.60
2018-12-12T06:55:52.440Z,12.07
2018-12-12T06:58:20.031Z,15.50
2018-12-12T07:00:47.673Z,13.57
2018-12-12T07:03:16.416Z,12.23
2018-12-12T07:05:43.967Z,12.77
2018-12-12T07:08:12.779Z,13.47
2018-12-12T07:10:40.335Z,14.10
2018-12-12T07:13:07.874Z,18.80
2018-12-12T07:15:35.450Z,17.93
2018-12-12T07:18:03.211Z,16.67
2018-12-12T07:20:30.902Z,15.83
2018-12-12T07:22:58.457Z,15.07
2018-12-12T07:25:26.047Z,14.00
2018-12-12T07:27:53.565Z,14.53
2018-12-12T07:30:22.313Z,13.43
2018-12-12T07:32:51.361Z,13.20
2018-12-12T07:35:19.588Z,13.67
2018-12-12T07:37:47.504Z,13.47
2018-12-12T07:40:15.474Z,14.00
2018-12-12T07:42:44.292Z,14.07
2018-12-12T07:45:11.972Z,13.40
2018-12-12T07:47:39.652Z,13.57
2018-12-12T07:50:07.270Z,14.33
2018-12-12T07:52:34.817Z,12.30
2018-12-12T07:55:02.446Z,12.97
2018-12-12T07:57:30.496Z,13.33
2018-12-12T07:59:58.313Z,14.07
2018-12-12T08:02:25.933Z,13.20
2018-12-12T08:04:54.212Z,13.83
2018-12-12T08:07:22.347Z,14.27
2018-12-12T08:09:51.148Z,13.77
2018-12-12T08:12:18.855Z,11.37
2018-12-12T08:14:46.407Z,13.43
2018-12-12T08:17:14.308Z,12.80
2018-12-12T08:19:41.979Z,12.20
2018-12-12T08:22:09.657Z,13.20
2018-12-12T08:24:37.184Z,13.73
2018-12-12T08:27:05.212Z,13.63
2018-12-12T08:29:32.741Z,13.63
2018-12-12T08:32:00.386Z,14.30
2018-12-12T08:34:28.089Z,13.87
2018-12-12T08:36:55.658Z,14.93
2018-12-12T08:39:23.394Z,14.87
2018-12-12T08:41:51.965Z,14.30
2018-12-12T08:44:19.516Z,15.30
2018-12-12T08:46:47.145Z,14.17
2018-12-12T08:49:14.940Z,14.57
2018-12-12T08:51:43.084Z,16.43
2018-12-12T08:54:10.891Z,15.90
2018-12-12T08:56:39.018Z,15.70
2018-12-12T08:59:07.052Z,15.77
2018-12-12T09:01:35.191Z,16.70
2018-12-12T09:04:02.812Z,15.90
2018-12-12T09:06:32.887Z,17.63
2018-12-12T09:09:00.413Z,15.93
2018-12-12T09:11:28.257Z,16.13
2018-12-12T09:13:55.840Z,15.57
2018-12-12T09:16:23.873Z,16.10
2018-12-12T09:18:52.192Z,16.00
2018-12-12T09:21:19.885Z,16.03
2018-12-12T09:23:47.476Z,16.90
2018-12-12T09:26:15.159Z,16.03
2018-12-12T09:28:42.820Z,17.17
2018-12-12T09:31:11.086Z,16.30
2018-12-12T09:33:38.776Z,17.47
2018-12-12T09:36:06.626Z,15.43
2018-12-12T09:38:34.560Z,16.50
2018-12-12T09:41:02.877Z,17.43
2018-12-12T09:43:31.133Z,16.77
2018-12-12T09:45:58.743Z,17.87
2018-12-12T09:48:26.356Z,17.17
2018-12-12T09:50:53.923Z,16.53
2018-12-12T09:53:21.515Z,17.07
2018-12-12T09:55:49.742Z,17.00
2018-12-12T09:58:17.313Z,18.17
2018-12-12T10:00:45.139Z,17.47
2018-12-12T10:03:12.689Z,17.13
2018-12-12T10:05:40.386Z,17.43
2018-12-12T10:08:08.599Z,17.30
2018-12-12T10:10:36.256Z,17.47
2018-12-12T10:13:03.825Z,17.00
2018-12-12T10:15:31.753Z,17.43
2018-12-12T10:17:59.351Z,16.67
2018-12-12T10:20:27.516Z,15.23
2018-12-12T10:22:55.841Z,15.70
2018-12-12T10:25:23.466Z,16.60
2018-12-12T10:27:51.983Z,16.43
2018-12-12T10:30:19.496Z,15.77
2018-12-12T10:32:47.159Z,14.70
2018-12-12T10:35:14.795Z,16.47
2018-12-12T10:37:42.525Z,15.37
2018-12-12T10:40:10.058Z,14.33
2018-12-12T10:42:37.618Z,15.53
2018-12-12T10:45:06.262Z,15.07
2018-12-12T10:47:34.885Z,15.97
2018-12-12T10:50:02.625Z,15.03
2018-12-12T10:52:30.329Z,16.13
2018-12-12T10:54:57.975Z,14.67
2018-12-12T10:57:25.491Z,14.63
2018-12-12T10:59:53.060Z,14.33
2018-12-12T11:02:26.539Z,14.87
2018-12-12T11:04:54.155Z,15.60
2018-12-12T11:07:21.837Z,15.80
2018-12-12T11:09:49.918Z,15.23
2018-12-12T11:12:17.855Z,14.97
2018-12-12T11:14:45.416Z,14.77
2018-12-12T11:17:13.013Z,14.80
2018-12-12T11:19:40.615Z,14.83
2018-12-12T11:22:08.343Z,13.90
2018-12-12T11:24:36.369Z,14.93
2018-12-12T11:27:04.174Z,13.77
2018-12-12T11:29:31.693Z,14.00
2018-12-12T11:31:59.463Z,16.67
2018-12-12T11:34:26.977Z,14.63
2018-12-12T11:36:54.559Z,14.80
2018-12-12T11:39:22.201Z,13.90
2018-12-12T11:41:50.701Z,13.20
2018-12-12T11:44:18.291Z,13.07
2018-12-12T11:46:45.847Z,14.37
2018-12-12T11:49:13.411Z,14.57
2018-12-12T11:51:41.456Z,14.60
2018-12-12T11:54:09.362Z,13.93
2018-12-12T11:56:36.958Z,15.13
2018-12-12T11:59:05.328Z,14.03
2018-12-12T12:01:32.899Z,13.37
2018-12-12T12:04:00.532Z,13.87
2018-12-12T12:06:28.223Z,14.43
2018-12-12T12:08:55.736Z,15.33
2018-12-12T12:11:23.651Z,12.90
2018-12-12T12:13:51.821Z,13.17
2018-12-12T12:16:19.390Z,13.57
2018-12-12T12:18:47.246Z,14.03
2018-12-12T12:21:15.089Z,13.30
2018-12-12T12:23:42.738Z,12.77
2018-12-12T12:26:11.466Z,13.37
2018-12-12T12:28:39.237Z,13.73
2018-12-12T12:31:07.264Z,13.70
2018-12-12T12:33:34.856Z,14.27
2018-12-12T12:36:02.519Z,13.73
2018-12-12T12:38:30.099Z,13.03
2018-12-12T12:40:57.701Z,12.53
2018-12-12T12:43:25.573Z,13.10
2018-12-12T12:45:54.099Z,15.70
2018-12-12T12:48:22.002Z,12.47
2018-12-12T12:50:49.855Z,11.90
2018-12-12T12:53:17.929Z,11.70
2018-12-12T12:55:45.674Z,11.90
2018-12-12T12:58:13.379Z,12.07
2018-12-12T13:00:41.093Z,11.73
2018-12-12T13:03:08.900Z,11.17
2018-12-12T13:05:37.187Z,12.90
2018-12-12T13:08:04.864Z,11.47
2018-12-12T13:10:32.605Z,13.13
2018-12-12T13:13:00.670Z,13.20
2018-12-12T13:15:29.398Z,12.20
2018-12-12T13:17:56.965Z,12.07
2018-12-12T13:20:24.715Z,11.80
2018-12-12T13:22:52.987Z,11.10
2018-12-12T13:25:20.561Z,13.33
2018-12-12T13:27:48.178Z,11.80
2018-12-12T13:30:15.725Z,12.33
2018-12-12T13:32:43.247Z,11.60
2018-12-12T13:35:11.125Z,11.70
2018-12-12T13:37:39.471Z,12.23
2018-12-12T13:40:07.883Z,13.00
2018-12-12T13:42:35.593Z,12.20
2018-12-12T13:45:03.371Z,12.13
2018-12-12T13:47:30.981Z,12.57
2018-12-12T13:49:58.503Z,12.53
2018-12-12T13:52:26.066Z,13.73
2018-12-12T13:54:55.233Z,12.80
2018-12-12T13:57:22.812Z,12.17
2018-12-12T13:59:52.477Z,13.00
2018-12-12T14:02:20.086Z,12.10
2018-12-12T14:04:47.653Z,13.37
2018-12-12T14:07:16.328Z,10.87
2018-12-12T14:09:44.133Z,11.33
2018-12-12T14:12:17.341Z,10.37
2018-12-12T14:14:42.090Z,9.13
2018-12-12T14:17:09.866Z,8.90
2018-12-12T14:19:37.421Z,8.13
2018-12-12T14:22:05.129Z,8.43
2018-12-12T14:24:33.063Z,10.33
2018-12-12T14:27:00.692Z,9.47
2018-12-12T14:29:29.321Z,8.97
2018-12-12T14:31:57.393Z,9.57
2018-12-12T14:34:29.240Z,8.97
2018-12-12T14:36:54.508Z,9.57
2018-12-12T14:39:22.962Z,10.13
2018-12-12T14:41:50.790Z,8.47
2018-12-12T14:44:18.355Z,8.77
2018-12-12T14:46:45.978Z,9.17
2018-12-12T14:49:13.675Z,8.17
2018-12-12T14:51:41.354Z,8.23
2018-12-12T14:54:09.125Z,9.43
2018-12-12T14:56:36.785Z,11.43
2018-12-12T14:59:04.326Z,8.27
2018-12-12T15:01:31.998Z,9.33
2018-12-12T15:04:00.025Z,8.73
2018-12-12T15:06:27.660Z,8.47
2018-12-12T15:08:55.488Z,9.33
2018-12-12T15:11:23.024Z,9.30
2018-12-12T15:13:52.086Z,9.60
2018-12-12T15:16:20.150Z,9.20
2018-12-12T15:18:48.715Z,9.10
2018-12-12T15:21:16.288Z,9.47
2018-12-12T15:23:44.915Z,9.63
2018-12-12T15:26:12.446Z,9.70
2018-12-12T15:28:57.204Z,9.27
2018-12-12T15:31:26.527Z,9.70
2018-12-12T15:33:54.304Z,9.87
2018-12-12T15:36:21.931Z,10.37
2018-12-12T15:38:49.497Z,9.53
2018-12-12T15:41:18.445Z,9.57
2018-12-12T15:43:47.154Z,9.20
2018-12-12T15:46:14.883Z,8.97
2018-12-12T15:48:43.368Z,8.57
2018-12-12T15:51:11.018Z,10.10
2018-12-12T15:53:38.717Z,8.60
2018-12-12T15:56:06.594Z,9.13
2018-12-12T15:58:34.247Z,9.37
2018-12-12T16:01:02.350Z,8.43
2018-12-12T16:03:29.908Z,8.47
2018-12-12T16:05:57.545Z,8.53
2018-12-12T16:08:25.719Z,7.63
2018-12-12T16:10:53.302Z,7.63
2018-12-12T16:13:20.868Z,7.93
2018-12-12T16:15:48.712Z,7.20
2018-12-12T16:18:16.535Z,6.47
2018-12-12T16:20:44.089Z,6.57
2018-12-12T16:23:11.604Z,5.60
2018-12-12T16:25:39.168Z,6.33
2018-12-12T16:28:06.750Z,6.30
2018-12-12T16:30:34.372Z,6.00
2018-12-12T16:33:01.948Z,6.37
2018-12-12T16:35:29.519Z,5.57
2018-12-12T16:37:57.336Z,4.93
2018-12-12T16:40:25.062Z,5.00
2018-12-12T16:42:53.496Z,5.03
2018-12-12T16:45:21.088Z,5.27
2018-12-12T16:47:48.732Z,4.70
2018-12-12T16:50:16.392Z,4.63
2018-12-12T16:52:43.972Z,4.63
2018-12-12T16:55:11.529Z,5.03
2018-12-12T16:57:39.091Z,3.60
2018-12-12T17:00:08.738Z,4.30
2018-12-12T17:02:36.861Z,4.17
2018-12-12T17:05:05.304Z,3.83
2018-12-12T17:07:32.998Z,4.30
2018-12-12T17:10:00.759Z,3.57
2018-12-12T17:12:28.559Z,4.40
2018-12-12T17:14:56.209Z,3.70
2018-12-12T17:17:23.785Z,3.90
2018-12-12T17:19:52.010Z,4.30
2018-12-12T17:22:19.637Z,3.80
2018-12-12T17:24:47.262Z,3.83
2018-12-12T17:27:15.418Z,4.17
2018-12-12T17:29:43.077Z,3.50
2018-12-12T17:32:10.893Z,3.90
2018-12-12T17:34:38.751Z,3.40
2018-12-12T17:37:06.318Z,3.30
2018-12-12T17:39:33.877Z,4.00
2018-12-12T17:42:02.003Z,3.63
2018-12-12T17:44:29.535Z,3.37
2018-12-12T17:46:57.122Z,3.97
2018-12-12T17:49:24.714Z,3.60
2018-12-12T17:51:52.269Z,3.50
2018-12-12T17:54:19.827Z,4.07
2018-12-12T17:56:47.438Z,4.03
2018-12-12T17:59:15.618Z,4.10
2018-12-12T18:01:43.324Z,3.97
2018-12-12T18:04:11.145Z,3.80
2018-12-12T18:06:39.058Z,4.23
2018-12-12T18:09:07.370Z,4.20
2018-12-12T18:11:35.030Z,5.23
2018-12-12T18:14:02.546Z,4.67
2018-12-12T18:16:30.103Z,4.73
2018-12-12T18:18:57.662Z,4.67
2018-12-12T18:21:25.220Z,5.07
2018-12-12T18:23:54.842Z,4.73
2018-12-12T18:26:22.419Z,4.33
2018-12-12T18:28:50.177Z,5.03
2018-12-12T18:31:17.745Z,4.77
2018-12-12T18:33:45.317Z,4.77
2018-12-12T18:36:13.125Z,4.50
2018-12-12T18:38:40.712Z,5.50
2018-12-12T18:41:08.514Z,5.40
2018-12-12T18:43:36.154Z,4.90
2018-12-12T18:46:03.877Z,6.23
2018-12-12T18:48:31.505Z,5.93
2018-12-12T18:50:59.357Z,5.93
2018-12-12T18:53:26.974Z,5.73
2018-12-12T18:55:54.504Z,5.27
2018-12-12T18:58:22.048Z,5.43
2018-12-12T19:00:49.653Z,4.87
2018-12-12T19:03:17.498Z,5.20
2018-12-12T19:05:45.252Z,5.27
2018-12-12T19:08:13.585Z,5.27
2018-12-12T19:10:41.164Z,5.10
2018-12-12T19:13:08.830Z,5.70
2018-12-12T19:15:36.750Z,5.40
2018-12-12T19:18:04.489Z,6.47
2018-12-12T19:20:32.034Z,5.60
2018-12-12T19:22:59.590Z,5.43
2018-12-12T19:25:27.165Z,5.23
2018-12-12T19:27:54.722Z,5.57
2018-12-12T19:30:22.235Z,5.10
2018-12-12T19:32:51.060Z,5.17
2018-12-12T19:35:18.994Z,5.07
2018-12-12T19:37:46.614Z,5.57
2018-12-12T19:40:14.154Z,5.70
2018-12-12T19:42:41.789Z,6.30
2018-12-12T19:45:09.440Z,5.63
2018-12-12T19:47:37.066Z,5.83
2018-12-12T19:50:06.428Z,6.47
2018-12-12T19:52:34.023Z,5.60
2018-12-12T19:55:01.905Z,5.40
2018-12-12T19:57:29.458Z,6.10
2018-12-12T19:59:56.990Z,5.47
2018-12-12T20:02:24.493Z,5.27
2018-12-12T20:04:52.131Z,5.53
2018-12-12T20:07:19.680Z,5.63
2018-12-12T20:09:47.226Z,5.40
2018-12-12T20:12:15.656Z,5.37
2018-12-12T20:14:43.200Z,5.37
2018-12-12T20:17:11.120Z,5.70
2018-12-12T20:19:38.804Z,5.17
2018-12-12T20:22:06.377Z,5.47
2018-12-12T20:24:33.986Z,5.30
2018-12-12T20:27:01.571Z,5.47
2018-12-12T20:29:29.398Z,5.37
2018-12-12T20:31:56.944Z,6.20
2018-12-12T20:34:24.908Z,5.57
2018-12-12T20:36:52.575Z,5.40
2018-12-12T20:39:20.101Z,5.27
2018-12-12T20:41:47.657Z,4.93
2018-12-12T20:44:15.182Z,5.40
2018-12-12T20:46:42.962Z,5.43
2018-12-12T20:49:10.554Z,5.43
2018-12-12T20:51:38.257Z,5.00
2018-12-12T20:54:05.801Z,4.80
2018-12-12T20:56:33.366Z,5.83
2018-12-12T20:59:00.962Z,5.47
2018-12-12T21:01:28.985Z,6.17
2018-12-12T21:03:56.528Z,5.10
2018-12-12T21:06:24.078Z,5.90
2018-12-12T21:08:51.769Z,5.97
2018-12-12T21:11:19.397Z,5.60
2018-12-12T21:13:46.917Z,5.20
2018-12-12T21:16:14.472Z,5.77
2018-12-12T21:18:42.084Z,5.87
2018-12-12T21:21:09.857Z,5.60
2018-12-12T21:23:37.377Z,5.47
2018-12-12T21:26:05.203Z,6.07
2018-12-12T21:28:32.959Z,6.13
2018-12-12T21:31:00.476Z,5.40
2018-12-12T21:33:28.049Z,5.17
2018-12-12T21:36:00.851Z,5.30
2018-12-12T21:38:25.266Z,5.27
2018-12-12T21:40:52.828Z,4.67
2018-12-12T21:43:20.493Z,4.80
2018-12-12T21:45:48.004Z,4.67
2018-12-12T21:48:15.662Z,4.20
2018-12-12T21:50:43.302Z,4.10
2018-12-12T21:53:10.969Z,4.10
2018-12-12T21:55:38.559Z,5.20
2018-12-12T21:58:06.802Z,4.90
2018-12-12T22:00:34.593Z,5.00
2018-12-12T22:03:02.438Z,5.13
2018-12-12T22:05:30.018Z,5.10
2018-12-12T22:07:57.610Z,5.13
2018-12-12T22:10:25.139Z,5.13
2018-12-12T22:12:52.699Z,4.83
2018-12-12T22:15:20.294Z,5.43
2018-12-12T22:17:47.900Z,5.03
2018-12-12T22:20:15.502Z,5.20
2018-12-12T22:22:43.077Z,5.20
2018-12-12T22:25:10.633Z,5.00
2018-12-12T22:27:38.165Z,4.87
2018-12-12T22:30:06.236Z,5.00
2018-12-12T22:32:33.778Z,5.30
2018-12-12T22:35:01.421Z,5.10
2018-12-12T22:37:29.020Z,5.73
2018-12-12T22:39:56.630Z,5.40
2018-12-12T22:42:24.218Z,6.30
2018-12-12T22:44:51.753Z,6.20
2018-12-12T22:47:19.358Z,5.73
2018-12-12T22:49:47.002Z,6.30
2018-12-12T22:52:14.529Z,6.20
2018-12-12T22:54:42.123Z,6.43
2018-12-12T22:57:09.858Z,6.07
2018-12-12T22:59:37.405Z,5.73
2018-12-12T23:02:05.288Z,5.50
2018-12-12T23:04:32.842Z,5.30
2018-12-12T23:07:00.801Z,6.43
2018-12-12T23:09:28.343Z,5.40
2018-12-12T23:11:57.009Z,6.00
2018-12-12T23:14:24.586Z,5.50
2018-12-12T23:16:52.141Z,6.40
2018-12-12T23:19:19.692Z,6.03
2018-12-12T23:21:47.304Z,5.93
2018-12-12T23:24:14.811Z,6.07
2018-12-12T23:26:42.375Z,5.97
2018-12-12T23:29:09.931Z,5.70
2018-12-12T23:31:37.493Z,5.63
2018-12-12T23:34:05.821Z,6.00
2018-12-12T23:36:33.410Z,5.77
2018-12-12T23:39:00.926Z,6.07
2018-12-12T23:41:28.530Z,5.83
2018-12-12T23:43:56.153Z,6.20
2018-12-12T23:46:23.695Z,6.27
2018-12-12T23:48:51.230Z,6.97
2018-12-12T23:51:18.753Z,6.70
2018-12-12T23:53:46.349Z,6.53
2018-12-12T23:56:14.201Z,5.80
2018-12-12T23:58:41.760Z,5.87
